»·PEaware :: N318DA KBFL-KMHV

N318DA :: KBFL-KMHV

FLIGHT INFORMATION

Flight Status: Arrived
Operator: Privately registered:
United States
More flights under this callsign
Pilot: Roland T. (32460)
Aircraft: CIRRUS SR-22
(SR22)
More flights by this aircraft type
Origin: KBFL Meadows
United States
Destination: KMHV Mojave
United States
More flights between these airports :: More routes between these airports
Route: ZALJE
File this flight plan on PilotEdge
Remarks:
Altitude:
(Current/Filed)
10,500ft
Speed:
(Current/Filed)
160kts
Departed: 28-Dec-20 04:15 PM
Arrived: 28-Dec-20 04:44 PM
Distance/Time
Traveled:
50nm/0:28
Distance/Time
To Go:
Arrived

Flight Plot

Page will automatically refresh every two minutes.

Flight plan parsing failed; only flown route is shown


Map Options




Map Legend


Flown Route
Filed Route
Departure Airport
Arrival Airport
Navaid (VOR, NDB)
Fix

Horizontal Profiles

Position Reports

Time Latitude Longitude Heading Altitude Ground
Speed
28-Dec-20 15:57 35.428359 -119.045099 80 480ft 0kts
28-Dec-20 15:58 35.428359 -119.045099 80 480ft 0kts
28-Dec-20 15:59 35.428359 -119.045099 80 480ft 0kts
28-Dec-20 16:00 35.428359 -119.045099 80 480ft 0kts
28-Dec-20 16:01 35.428359 -119.045099 80 480ft 0kts
28-Dec-20 16:02 35.428359 -119.045099 80 480ft 0kts
28-Dec-20 16:03 35.428359 -119.045099 80 480ft 0kts
28-Dec-20 16:04 35.428359 -119.045099 80 480ft 0kts
28-Dec-20 16:05 35.428359 -119.045099 80 480ft 0kts
28-Dec-20 16:06 35.428358 -119.045099 80 480ft 0kts
28-Dec-20 16:07 35.428358 -119.045099 80 480ft 0kts
28-Dec-20 16:08 35.428358 -119.045099 80 480ft 0kts
28-Dec-20 16:08 35.428358 -119.045099 80 480ft 0kts
28-Dec-20 16:09 35.428358 -119.045099 80 480ft 0kts
28-Dec-20 16:11 35.427376 -119.046105 139 477ft 11kts
28-Dec-20 16:12 35.425779 -119.044700 223 471ft 0kts
28-Dec-20 16:12 35.425779 -119.044700 223 471ft 0kts
28-Dec-20 16:14 35.425754 -119.044728 220 471ft 4kts
28-Dec-20 16:14 35.429791 -119.051303 317 505ft 85kts
28-Dec-20 16:16 35.454482 -119.061634 49 1414ft 103kts
28-Dec-20 16:16 35.459981 -119.029728 122 2306ft 121kts
28-Dec-20 16:17 35.439463 -118.999649 133 3696ft 105kts
28-Dec-20 16:18 35.415077 -118.977944 146 4808ft 110kts
28-Dec-20 16:19 35.389586 -118.956535 146 5887ft 111kts
28-Dec-20 16:20 35.363636 -118.934853 146 6886ft 113kts
28-Dec-20 16:22 35.332896 -118.909355 146 7911ft 115kts
28-Dec-20 16:22 35.310555 -118.890917 146 8604ft 116kts
28-Dec-20 16:23 35.283437 -118.868588 146 9431ft 118kts
28-Dec-20 16:24 35.250883 -118.842197 147 9495ft 155kts
28-Dec-20 16:25 35.216076 -118.808704 129 9496ft 162kts
28-Dec-20 16:26 35.189268 -118.764553 126 9492ft 155kts
28-Dec-20 16:27 35.165777 -118.725198 126 9506ft 146kts
28-Dec-20 16:28 35.135213 -118.687625 138 9503ft 160kts
28-Dec-20 16:29 35.101862 -118.650647 138 9498ft 162kts
28-Dec-20 16:30 35.068361 -118.613665 138 9499ft 162kts
28-Dec-20 16:31 35.034925 -118.576746 138 9505ft 163kts
28-Dec-20 16:32 35.001284 -118.539753 138 9499ft 162kts
28-Dec-20 16:33 34.968135 -118.503360 138 9210ft 156kts
28-Dec-20 16:34 34.936057 -118.468439 138 8703ft 153kts
28-Dec-20 16:35 34.935303 -118.418179 70 7725ft 168kts
28-Dec-20 16:36 34.951867 -118.363915 67 6540ft 171kts
28-Dec-20 16:37 34.976287 -118.312046 54 4960ft 180kts
28-Dec-20 16:38 35.004170 -118.266998 55 4518ft 139kts
28-Dec-20 16:39 35.023212 -118.224350 66 4108ft 160kts
28-Dec-20 16:40 35.034537 -118.183790 72 3954ft 101kts
28-Dec-20 16:41 35.030319 -118.155658 85 3899ft 88kts
28-Dec-20 16:42 35.044496 -118.135905 3 3435ft 94kts
28-Dec-20 16:43 35.057591 -118.144900 86 2745ft 11kts
28-Dec-20 16:44 35.057600 -118.144736 91 2745ft 0kts
28-Dec-20 16:45 35.057600 -118.144736 91 2745ft 0kts
28-Dec-20 16:46 35.059128 -118.143042 285 2740ft 10kts
28-Dec-20 16:47 35.059179 -118.146273 268 2749ft 8kts
28-Dec-20 16:48 35.057986 -118.149330 234 2752ft 15kts
28-Dec-20 16:49 35.057465 -118.150716 24 2754ft 0kts
28-Dec-20 16:50 35.057378 -118.150672 186 2753ft 0kts
28-Dec-20 16:51 35.057277 -118.150442 85 2753ft 0kts
28-Dec-20 16:52 35.057277 -118.150442 85 2753ft 0kts
28-Dec-20 16:53 35.057277 -118.150442 85 2753ft 0kts

Navigation Log

Ident Type
Flight plan parsing failed, navigation log unavailable